createdAt,value
2023-03-26T00:00:03.339Z,46.9
2023-03-26T00:05:01.134Z,46.7
2023-03-26T00:10:02.694Z,46.5
2023-03-26T00:15:00.882Z,46.5
2023-03-26T00:25:01.151Z,46.2
2023-03-26T00:30:01.252Z,46.0
2023-03-26T00:35:02.034Z,46.4
2023-03-26T00:45:01.542Z,46.4
2023-03-26T00:50:00.883Z,46.7
2023-03-26T00:55:07.629Z,47.2
2023-03-26T01:05:01.891Z,46.2
2023-03-26T01:15:01.533Z,46.2
2023-03-26T01:25:01.095Z,46.1
2023-03-26T01:30:01.961Z,46.2
2023-03-26T01:35:01.650Z,46.3
2023-03-26T01:45:01.671Z,46.3
2023-03-26T01:55:01.517Z,46.3
2023-03-26T02:05:01.061Z,46.4
2023-03-26T02:10:01.123Z,46.3
2023-03-26T02:15:00.888Z,46.4
2023-03-26T02:25:01.542Z,46.4
2023-03-26T02:30:01.134Z,46.4
2023-03-26T02:35:02.156Z,46.4
2023-03-26T02:45:01.514Z,46.4
2023-03-26T02:50:03.774Z,46.3
2023-03-26T02:55:01.565Z,46.0
2023-03-26T03:05:03.026Z,45.6
2023-03-26T03:10:01.929Z,45.9
2023-03-26T03:15:01.117Z,45.9
2023-03-26T03:25:01.740Z,45.8
2023-03-26T03:30:02.233Z,45.8
2023-03-26T03:35:01.093Z,45.9
2023-03-26T03:45:01.150Z,45.9
2023-03-26T03:50:01.957Z,45.9
2023-03-26T03:55:02.030Z,45.8
2023-03-26T04:00:06.393Z,45.9
2023-03-26T04:05:00.913Z,46.0
2023-03-26T04:10:05.219Z,45.9
2023-03-26T04:15:01.544Z,46.0
2023-03-26T04:25:01.271Z,45.9
2023-03-26T04:35:02.176Z,45.9
2023-03-26T04:45:01.500Z,45.9
2023-03-26T04:55:02.499Z,45.9
2023-03-26T05:05:02.313Z,45.8
2023-03-26T05:10:00.856Z,45.9
2023-03-26T05:15:03.197Z,46.0
2023-03-26T05:25:01.261Z,46.0
2023-03-26T05:35:01.124Z,46.0
2023-03-26T05:45:01.427Z,46.0
2023-03-26T05:55:02.818Z,45.9
2023-03-26T06:05:00.981Z,45.9
2023-03-26T06:15:00.834Z,46.0
2023-03-26T06:25:01.315Z,46.0
2023-03-26T06:30:01.181Z,46.0
2023-03-26T06:35:01.588Z,46.0
2023-03-26T06:45:00.888Z,46.1
2023-03-26T06:55:01.154Z,46.0
2023-03-26T07:05:04.149Z,46.4
2023-03-26T07:15:01.128Z,46.2
2023-03-26T07:25:01.541Z,46.3
2023-03-26T07:35:00.961Z,46.0
2023-03-26T07:40:01.438Z,46.0
2023-03-26T07:45:00.889Z,45.9
2023-03-26T07:50:00.901Z,45.9
2023-03-26T07:55:01.675Z,45.9
2023-03-26T08:05:01.596Z,45.6
2023-03-26T08:15:00.853Z,45.6
2023-03-26T08:25:00.882Z,45.7
2023-03-26T08:35:00.830Z,45.4
2023-03-26T08:40:01.385Z,45.6
2023-03-26T08:45:01.238Z,45.5
2023-03-26T08:55:00.923Z,45.4
2023-03-26T09:05:02.053Z,45.4
2023-03-26T09:15:00.919Z,45.4
2023-03-26T09:25:00.901Z,45.4
2023-03-26T09:35:01.755Z,45.3
2023-03-26T09:45:01.893Z,45.3
2023-03-26T09:55:01.384Z,45.4
2023-03-26T10:05:00.658Z,46.6
2023-03-26T10:15:01.646Z,47.4
2023-03-26T10:25:01.277Z,47.2
2023-03-26T10:35:01.149Z,47.5
2023-03-26T10:45:01.976Z,47.5
2023-03-26T10:55:01.090Z,48.3
2023-03-26T11:05:01.452Z,48.2
2023-03-26T11:15:01.547Z,48.0
2023-03-26T11:25:05.173Z,47.9
2023-03-26T11:35:02.052Z,48.3
2023-03-26T11:45:02.891Z,48.1
2023-03-26T11:55:01.102Z,47.9
2023-03-26T12:05:02.650Z,49.0
2023-03-26T12:15:01.391Z,49.5
2023-03-26T12:25:02.089Z,49.5
2023-03-26T12:35:02.002Z,45.9
2023-03-26T12:45:01.735Z,44.7
2023-03-26T12:55:00.854Z,44.3
2023-03-26T13:05:07.038Z,44.4
2023-03-26T13:15:00.905Z,44.0
2023-03-26T13:25:03.382Z,45.4
2023-03-26T13:35:00.938Z,46.1
2023-03-26T13:45:06.196Z,46.9
2023-03-26T13:55:01.536Z,47.0
2023-03-26T14:05:01.341Z,47.1
2023-03-26T14:15:02.799Z,47.6
2023-03-26T14:20:02.437Z,48.1
2023-03-26T14:25:03.419Z,48.6
2023-03-26T14:35:01.412Z,49.4
2023-03-26T14:45:00.907Z,50.7
2023-03-26T14:55:00.553Z,50.9
2023-03-26T15:05:01.325Z,51.4
2023-03-26T15:15:02.873Z,51.0
2023-03-26T15:25:01.312Z,51.5
2023-03-26T15:35:00.925Z,51.8
2023-03-26T15:40:01.604Z,51.5
2023-03-26T15:45:01.142Z,51.6
2023-03-26T15:55:01.563Z,51.9
2023-03-26T16:00:01.555Z,51.9
2023-03-26T16:05:01.678Z,51.9
2023-03-26T16:15:01.372Z,51.9
2023-03-26T16:20:01.070Z,51.8
2023-03-26T16:25:27.038Z,51.9
2023-03-26T16:35:01.171Z,52.0
2023-03-26T16:40:02.275Z,51.9
2023-03-26T16:45:01.472Z,52.1
2023-03-26T16:55:01.716Z,52.1
2023-03-26T17:05:02.880Z,50.6
2023-03-26T17:15:01.345Z,49.1
2023-03-26T17:20:01.617Z,49.0
2023-03-26T17:25:00.576Z,48.8
2023-03-26T17:35:02.469Z,48.3
2023-03-26T17:40:01.778Z,48.1
2023-03-26T17:45:03.751Z,48.0
2023-03-26T17:55:01.989Z,47.8
2023-03-26T18:00:03.578Z,47.7
2023-03-26T18:05:01.337Z,47.9
2023-03-26T18:15:01.547Z,47.7
2023-03-26T18:20:02.599Z,47.8
2023-03-26T18:25:02.442Z,47.8
2023-03-26T18:35:00.946Z,49.0
2023-03-26T18:40:02.437Z,49.4
2023-03-26T18:45:04.750Z,49.5
2023-03-26T18:55:01.126Z,49.3
2023-03-26T19:00:02.783Z,49.4
2023-03-26T19:05:02.174Z,49.4
2023-03-26T19:15:01.041Z,49.4
2023-03-26T19:20:03.291Z,49.4
2023-03-26T19:25:01.986Z,49.3
2023-03-26T19:35:01.318Z,49.2
2023-03-26T19:40:01.993Z,49.2
2023-03-26T19:45:01.266Z,49.2
2023-03-26T19:55:01.384Z,49.3
2023-03-26T20:00:02.032Z,49.2
2023-03-26T20:05:01.097Z,49.2
2023-03-26T20:15:00.922Z,49.1
2023-03-26T20:20:01.187Z,49.1
2023-03-26T20:25:01.116Z,49.1
2023-03-26T20:35:01.298Z,49.0
2023-03-26T20:40:01.088Z,49.0
2023-03-26T20:45:01.122Z,49.0
2023-03-26T20:55:02.340Z,48.9
2023-03-26T21:00:00.856Z,48.9
2023-03-26T21:05:01.504Z,48.9
2023-03-26T21:15:13.556Z,48.6
2023-03-26T21:20:00.990Z,48.5
2023-03-26T21:25:01.121Z,48.5
2023-03-26T21:35:01.534Z,48.2
2023-03-26T21:40:01.151Z,48.2
2023-03-26T21:45:01.036Z,48.0
2023-03-26T21:55:02.199Z,47.9
2023-03-26T22:00:04.348Z,47.8
2023-03-26T22:05:01.066Z,47.8
2023-03-26T22:15:02.547Z,47.6
2023-03-26T22:20:01.184Z,47.6
2023-03-26T22:25:00.894Z,47.5
2023-03-26T22:35:01.963Z,47.4
2023-03-26T22:40:01.626Z,47.3
2023-03-26T22:45:00.908Z,47.3
2023-03-26T22:55:01.936Z,47.2
2023-03-26T23:00:01.162Z,47.1
2023-03-26T23:05:01.295Z,47.1
2023-03-26T23:15:01.126Z,47.0
2023-03-26T23:20:02.816Z,47.0
2023-03-26T23:25:01.310Z,47.2
2023-03-26T23:35:01.176Z,48.8
2023-03-26T23:40:01.610Z,49.0
2023-03-26T23:45:01.553Z,49.2
2023-03-26T23:55:03.203Z,49.5
